Time;durP1;ratioP1;P1;durP2;ratioP2;P2;SDS_P1;SDS_P2;PMS_P1;PMS_P2;Temp;Humidity;BMP_temperature;BMP_pressure;BME280_temperature;BME280_humidity;BME280_pressure;Samples;Min_cycle;Max_cycle;Signal;HPM_P1;HPM_P2
2022/04/14 00:01:46;;;;;;;12.98;5.90;;;;;;;5.71;nan;100996.06;5019095;28;20054;-69
2022/04/14 00:04:11;;;;;;;11.68;5.47;;;;;;;5.70;nan;100986.59;5016192;28;20042;-67
2022/04/14 00:06:37;;;;;;;11.60;5.38;;;;;;;5.75;nan;101005.97;5017877;28;20029;-67
2022/04/14 00:09:03;;;;;;;10.57;6.03;;;;;;;5.65;nan;100999.34;5003462;28;20034;-67
2022/04/14 00:11:28;;;;;;;12.70;5.80;;;;;;;5.67;nan;101011.25;4995560;28;20404;-65
2022/04/14 00:13:54;;;;;;;10.43;5.50;;;;;;;5.52;nan;100985.09;5008207;28;20033;-66
2022/04/14 00:16:20;;;;;;;12.80;5.80;;;;;;;5.48;nan;100983.03;5009464;28;20042;-67
2022/04/14 00:18:45;;;;;;;12.63;5.63;;;;;;;5.51;nan;100996.56;5009617;28;20395;-66
2022/04/14 00:21:11;;;;;;;10.70;5.40;;;;;;;5.53;nan;101007.66;5009862;28;20124;-66
2022/04/14 00:23:36;;;;;;;11.82;5.60;;;;;;;5.35;nan;100988.03;5008018;28;20038;-68
2022/04/14 00:26:02;;;;;;;13.27;5.80;;;;;;;5.35;nan;100994.06;5010478;28;20045;-68
2022/04/14 00:28:27;;;;;;;13.55;5.20;;;;;;;5.39;nan;101012.81;5009687;28;20484;-68
2022/04/14 00:30:53;;;;;;;10.38;5.78;;;;;;;5.18;nan;100975.13;5009772;28;20042;-69
2022/04/14 00:33:18;;;;;;;10.30;5.93;;;;;;;5.11;nan;100980.22;5023653;28;20038;-69
2022/04/14 00:35:43;;;;;;;10.95;5.70;;;;;;;4.97;nan;100982.78;5009804;28;20037;-69
2022/04/14 00:38:09;;;;;;;9.93;4.93;;;;;;;5.05;nan;101000.97;5010330;28;20030;-68
2022/04/14 00:40:34;;;;;;;15.27;5.97;;;;;;;5.04;nan;100989.72;5012526;28;20062;-70
2022/04/14 00:43:00;;;;;;;12.10;5.38;;;;;;;5.00;nan;100988.44;5006951;28;20038;-69
2022/04/14 00:45:25;;;;;;;13.50;5.70;;;;;;;4.88;nan;100988.06;5013266;28;20035;-67
2022/04/14 00:47:53;;;;;;;13.98;4.88;;;;;;;4.87;nan;100991.63;5007738;28;20442;-69
2022/04/14 00:50:19;;;;;;;13.52;5.57;;;;;;;4.85;nan;100993.59;5012869;28;20041;-68
2022/04/14 00:52:45;;;;;;;15.60;5.32;;;;;;;4.72;nan;100975.09;5013115;28;20038;-69
2022/04/14 00:55:12;;;;;;;12.68;5.40;;;;;;;4.84;nan;100991.19;5012491;28;20030;-69
2022/04/14 00:57:37;;;;;;;10.70;5.00;;;;;;;4.62;nan;100959.69;5013304;28;20072;-69
2022/04/14 01:00:04;;;;;;;11.30;5.00;;;;;;;4.83;nan;100990.34;5011308;28;20026;-69
2022/04/14 01:02:30;;;;;;;11.82;4.78;;;;;;;4.69;nan;100980.66;5012843;28;20028;-68
2022/04/14 01:04:57;;;;;;;8.57;4.85;;;;;;;4.54;nan;100974.53;5026859;28;20129;-69
2022/04/14 01:07:23;;;;;;;10.13;4.60;;;;;;;4.51;nan;100980.13;5013336;28;20076;-68
2022/04/14 01:09:49;;;;;;;11.05;5.35;;;;;;;4.46;nan;100991.06;5012522;28;20093;-68
2022/04/14 01:12:14;;;;;;;11.07;5.45;;;;;;;4.52;nan;100989.53;5012652;28;20449;-68
2022/04/14 01:14:40;;;;;;;13.18;5.47;;;;;;;4.49;nan;100977.66;5019036;28;20087;-69
2022/04/14 01:17:09;;;;;;;10.20;5.45;;;;;;;4.60;nan;100997.34;5012870;28;20037;-68
2022/04/14 01:19:36;;;;;;;15.40;5.72;;;;;;;4.47;nan;100977.03;5012465;28;20077;-69
2022/04/14 01:22:08;;;;;;;10.25;5.10;;;;;;;4.61;nan;100994.56;5013749;28;20045;-69
2022/04/14 01:24:34;;;;;;;12.35;5.95;;;;;;;4.62;nan;100997.97;5013088;28;20069;-68
2022/04/14 01:27:00;;;;;;;12.73;5.88;;;;;;;4.62;nan;100997.97;5012308;28;20096;-69
2022/04/14 01:29:27;;;;;;;11.65;5.53;;;;;;;4.56;nan;100994.25;5012146;28;20068;-69
2022/04/14 01:31:55;;;;;;;12.63;5.97;;;;;;;4.60;nan;101000.75;5011666;28;20057;-69
2022/04/14 01:34:20;;;;;;;9.40;5.15;;;;;;;4.60;nan;100999.97;5026463;28;20373;-68
2022/04/14 01:36:46;;;;;;;9.80;5.65;;;;;;;4.52;nan;100992.16;5009832;28;20052;-67
2022/04/14 01:39:13;;;;;;;12.90;6.38;;;;;;;4.51;nan;101003.59;5002850;28;20041;-69
2022/04/14 01:41:39;;;;;;;11.43;5.60;;;;;;;4.36;nan;100988.66;5012025;28;20435;-69
2022/04/14 01:44:05;;;;;;;14.52;6.07;;;;;;;4.39;nan;100988.31;5012527;28;20045;-69
2022/04/14 01:46:31;;;;;;;12.43;6.07;;;;;;;4.47;nan;100996.06;5010435;28;20068;-69
2022/04/14 01:48:59;;;;;;;11.52;5.80;;;;;;;4.33;nan;100978.53;5011877;28;20033;-69
2022/04/14 01:51:28;;;;;;;10.43;5.32;;;;;;;4.31;nan;100982.31;5011399;28;20388;-69
2022/04/14 01:53:54;;;;;;;11.98;6.43;;;;;;;4.33;nan;101004.59;5011914;28;20108;-69
2022/04/14 01:56:19;;;;;;;11.38;6.00;;;;;;;4.17;nan;100989.06;5019463;28;20057;-69
2022/04/14 01:58:45;;;;;;;16.02;6.43;;;;;;;4.12;nan;100986.09;5016040;28;20498;-69
2022/04/14 02:01:10;;;;;;;14.15;6.32;;;;;;;4.18;nan;101003.69;5011481;28;20060;-69
2022/04/14 02:03:36;;;;;;;12.73;6.90;;;;;;;4.08;nan;100990.84;5011954;28;20113;-69
2022/04/14 02:06:02;;;;;;;10.98;6.55;;;;;;;4.11;nan;100994.91;5011671;28;20033;-69
2022/04/14 02:08:27;;;;;;;19.02;7.45;;;;;;;4.06;nan;100990.22;5023551;28;20517;-69
2022/04/14 02:10:53;;;;;;;13.73;6.97;;;;;;;4.00;nan;100986.50;5004956;28;20040;-68
2022/04/14 02:13:18;;;;;;;15.73;8.70;;;;;;;3.98;nan;100979.81;5011628;28;20032;-69
2022/04/14 02:15:44;;;;;;;13.60;7.57;;;;;;;3.86;nan;100968.94;5024970;28;20069;-69
2022/04/14 02:18:09;;;;;;;21.33;7.97;;;;;;;3.87;nan;100980.97;5011696;28;20088;-68
2022/04/14 02:20:35;;;;;;;15.30;7.90;;;;;;;3.98;nan;101000.66;5018259;28;20065;-68
2022/04/14 02:23:00;;;;;;;18.27;7.47;;;;;;;3.93;nan;101002.97;5011515;28;20026;-68
2022/04/14 02:25:26;;;;;;;14.95;7.50;;;;;;;3.87;nan;100994.00;5010929;28;20041;-68
2022/04/14 02:27:51;;;;;;;17.50;8.30;;;;;;;3.82;nan;100996.28;5011377;28;20044;-68
2022/04/14 02:30:16;;;;;;;16.13;8.88;;;;;;;3.63;nan;100974.81;5011249;28;20048;-68
2022/04/14 02:32:43;;;;;;;16.77;8.45;;;;;;;3.53;nan;100983.81;5011150;28;20439;-68
2022/04/14 02:35:09;;;;;;;17.25;7.97;;;;;;;3.43;nan;100973.56;5010846;28;20065;-67
2022/04/14 02:37:34;;;;;;;13.60;8.30;;;;;;;3.50;nan;100994.56;5008426;28;20515;-68
2022/04/14 02:40:00;;;;;;;16.10;7.97;;;;;;;3.41;nan;100984.13;5010891;28;20046;-69
2022/04/14 02:42:25;;;;;;;17.83;8.20;;;;;;;3.44;nan;101000.41;5011234;28;20025;-66
2022/04/14 02:44:51;;;;;;;20.25;7.45;;;;;;;3.18;nan;100981.38;5010806;28;20034;-69
2022/04/14 02:47:16;;;;;;;15.30;7.80;;;;;;;3.16;nan;100991.13;5009868;28;20484;-68
2022/04/14 02:49:42;;;;;;;16.48;7.88;;;;;;;2.97;nan;100989.63;5010774;28;20480;-68
2022/04/14 02:52:08;;;;;;;16.75;8.18;;;;;;;2.93;nan;100990.94;5010972;28;20084;-68
2022/04/14 02:54:37;;;;;;;12.02;7.18;;;;;;;2.88;nan;100989.78;5009047;28;20691;-68
2022/04/14 02:57:05;;;;;;;;;;;;;;;2.94;nan;101012.53;5011196;28;20038;-69
2022/04/14 02:59:31;;;;;;;15.32;7.53;;;;;;;2.76;nan;100991.88;5025578;28;19940;-68
2022/04/14 03:01:56;;;;;;;20.85;7.88;;;;;;;2.77;nan;100994.28;5009994;28;20550;-68
2022/04/14 03:04:22;;;;;;;16.45;7.85;;;;;;;2.77;nan;101004.69;5013810;28;20061;-68
2022/04/14 03:06:47;;;;;;;18.42;7.85;;;;;;;2.73;nan;101011.22;5024862;28;20053;-69
2022/04/14 03:09:12;;;;;;;17.73;8.80;;;;;;;2.75;nan;101018.84;5024582;28;20129;-69
2022/04/14 03:11:38;;;;;;;19.92;8.52;;;;;;;2.51;nan;101022.16;5024293;28;20038;-69
2022/04/14 03:14:03;;;;;;;17.38;8.63;;;;;;;2.45;nan;101015.00;5025476;28;20048;-70
2022/04/14 03:16:29;;;;;;;17.73;9.15;;;;;;;2.45;nan;101015.81;5023983;28;20030;-69
2022/04/14 03:18:54;;;;;;;19.00;8.75;;;;;;;2.43;nan;101019.53;5010442;28;20571;-69
2022/04/14 03:21:19;;;;;;;22.08;8.82;;;;;;;2.43;nan;101024.75;5010528;28;20056;-69
2022/04/14 03:23:45;;;;;;;21.02;8.73;;;;;;;2.39;nan;101015.63;5010827;28;20044;-69
2022/04/14 03:26:10;;;;;;;18.02;9.35;;;;;;;2.29;nan;101006.16;5008948;28;20681;-69
2022/04/14 03:28:36;;;;;;;17.83;9.07;;;;;;;2.36;nan;101013.34;5008686;28;20125;-68
2022/04/14 03:31:02;;;;;;;18.58;9.02;;;;;;;2.35;nan;101015.13;5010492;28;20118;-69
2022/04/14 03:33:28;;;;;;;17.13;8.98;;;;;;;2.25;nan;101009.22;5010213;28;20049;-68
2022/04/14 03:35:53;;;;;;;18.63;8.40;;;;;;;2.32;nan;101024.06;5009538;28;20073;-67
2022/04/14 03:38:19;;;;;;;18.13;8.20;;;;;;;2.19;nan;101004.66;5010323;28;20065;-68
2022/04/14 03:40:44;;;;;;;19.52;8.57;;;;;;;2.26;nan;101019.47;5008579;28;20072;-69
2022/04/14 03:43:09;;;;;;;19.55;8.80;;;;;;;2.32;nan;101036.22;4994720;28;20117;-69
2022/04/14 03:45:35;;;;;;;20.85;9.30;;;;;;;2.28;nan;101027.13;5009516;28;20497;-68
2022/04/14 03:48:00;;;;;;;18.20;8.65;;;;;;;2.22;nan;101028.53;5008472;28;20488;-68
2022/04/14 03:50:26;;;;;;;16.60;8.38;;;;;;;2.22;nan;101031.13;5009417;28;20034;-69
2022/04/14 03:52:51;;;;;;;15.13;8.02;;;;;;;2.23;nan;101027.59;5009625;28;20125;-67
2022/04/14 03:55:16;;;;;;;22.15;9.40;;;;;;;2.29;nan;101026.94;5010220;28;20173;-68
2022/04/14 03:57:42;;;;;;;20.17;9.93;;;;;;;2.39;nan;101033.81;5010255;28;20034;-71
2022/04/14 04:00:08;;;;;;;21.23;10.38;;;;;;;2.46;nan;101042.63;5008153;28;20404;-70
2022/04/14 04:02:35;;;;;;;23.38;10.52;;;;;;;2.44;nan;101060.16;5007622;28;20165;-70
2022/04/14 04:05:01;;;;;;;24.45;10.80;;;;;;;2.39;nan;101062.41;5006428;28;20029;-69
2022/04/14 04:07:26;;;;;;;20.58;10.48;;;;;;;2.43;nan;101071.53;5008160;28;20036;-69
2022/04/14 04:09:52;;;;;;;25.20;10.20;;;;;;;2.36;nan;101067.91;5009280;28;20078;-69
2022/04/14 04:12:19;;;;;;;21.10;10.57;;;;;;;2.45;nan;101070.41;5003735;28;20387;-69
2022/04/14 04:14:45;;;;;;;22.67;11.93;;;;;;;2.46;nan;101073.81;5008308;28;20038;-68
2022/04/14 04:17:10;;;;;;;19.08;10.60;;;;;;;2.49;nan;101086.50;5012392;28;20082;-73
2022/04/14 04:19:38;;;;;;;19.98;10.70;;;;;;;2.37;nan;101091.16;5013191;28;20507;-73
2022/04/14 04:22:04;;;;;;;24.98;11.52;;;;;;;2.35;nan;101082.69;5013541;28;20233;-72
2022/04/14 04:24:30;;;;;;;29.40;11.63;;;;;;;2.32;nan;101078.63;5028307;28;20049;-72
2022/04/14 04:26:55;;;;;;;25.52;11.43;;;;;;;2.28;nan;101066.91;5012080;28;20041;-73
2022/04/14 04:29:21;;;;;;;30.17;11.40;;;;;;;2.32;nan;101075.19;5013373;28;20099;-73
2022/04/14 04:31:46;;;;;;;39.97;12.98;;;;;;;2.34;nan;101071.47;5018937;28;20045;-73
2022/04/14 04:34:11;;;;;;;27.33;11.75;;;;;;;2.32;nan;101072.59;5013109;28;20123;-73
2022/04/14 04:36:37;;;;;;;33.38;12.65;;;;;;;2.41;nan;101076.06;5012571;28;20051;-74
2022/04/14 04:39:04;;;;;;;32.38;11.75;;;;;;;2.44;nan;101071.38;5031758;28;20040;-73
2022/04/14 04:41:30;;;;;;;32.38;11.52;;;;;;;2.57;nan;101086.56;5013329;28;20029;-72
2022/04/14 04:43:55;;;;;;;21.83;10.77;;;;;;;2.63;nan;101091.09;5013515;28;20447;-73
2022/04/14 04:46:20;;;;;;;28.83;10.75;;;;;;;2.65;nan;101088.38;5012582;28;20040;-73
2022/04/14 04:48:46;;;;;;;28.98;11.02;;;;;;;2.81;nan;101103.22;5013243;28;20046;-73
2022/04/14 04:51:11;;;;;;;29.35;11.10;;;;;;;2.76;nan;101088.09;5006082;28;20045;-71
2022/04/14 04:53:37;;;;;;;30.92;12.00;;;;;;;2.91;nan;101101.31;5006181;28;20272;-71
2022/04/14 04:56:02;;;;;;;31.55;12.77;;;;;;;2.81;nan;101085.84;5014582;28;20036;-71
2022/04/14 04:58:27;;;;;;;26.98;12.18;;;;;;;2.90;nan;101107.50;5012563;28;20057;-71
2022/04/14 05:00:53;;;;;;;25.30;11.40;;;;;;;2.91;nan;101109.13;5009497;28;20033;-72
2022/04/14 05:03:21;;;;;;;33.72;12.57;;;;;;;3.00;nan;101118.59;5010086;28;20030;-73
2022/04/14 05:05:47;;;;;;;23.65;11.63;;;;;;;3.08;nan;101123.00;5026193;28;20041;-73
2022/04/14 05:08:12;;;;;;;28.25;11.63;;;;;;;3.08;nan;101121.19;5013482;28;20396;-73
2022/04/14 05:10:37;;;;;;;22.40;11.43;;;;;;;3.12;nan;101109.50;5015768;28;20035;-72
2022/04/14 05:13:04;;;;;;;26.67;10.93;;;;;;;3.23;nan;101118.00;5015024;28;20072;-74
2022/04/14 05:15:29;;;;;;;28.52;10.88;;;;;;;3.35;nan;101124.53;5012192;28;20124;-73
2022/04/14 05:17:58;;;;;;;24.58;11.55;;;;;;;3.30;nan;101106.78;5011869;28;20421;-73
2022/04/14 05:20:23;;;;;;;25.73;10.98;;;;;;;3.40;nan;101110.06;5012119;28;20040;-72
2022/04/14 05:22:48;;;;;;;23.35;10.15;;;;;;;3.63;nan;101127.66;5011392;28;20037;-73
2022/04/14 05:25:14;;;;;;;29.73;11.43;;;;;;;3.69;nan;101124.44;5009486;28;20046;-74
2022/04/14 05:27:42;;;;;;;27.92;11.10;;;;;;;3.83;nan;101125.56;5011379;28;20026;-71
2022/04/14 05:30:08;;;;;;;21.42;10.57;;;;;;;3.88;nan;101133.72;5026888;28;20112;-72
2022/04/14 05:32:34;;;;;;;26.20;10.43;;;;;;;3.93;nan;101121.03;5011854;28;20113;-72
2022/04/14 05:34:59;;;;;;;30.67;12.55;;;;;;;4.10;nan;101134.06;5010968;28;20141;-71
2022/04/14 05:37:25;;;;;;;22.20;11.60;;;;;;;4.18;nan;101131.41;5011338;28;20081;-72
2022/04/14 05:39:50;;;;;;;27.13;12.00;;;;;;;4.33;nan;101134.16;5011378;28;20057;-71
2022/04/14 05:42:16;;;;;;;25.67;9.55;;;;;;;4.37;nan;101125.84;5009844;28;20058;-73
2022/04/14 05:44:41;;;;;;;22.23;9.80;;;;;;;4.57;nan;101136.72;5010512;28;20892;-72
2022/04/14 05:47:07;;;;;;;20.17;9.07;;;;;;;4.66;nan;101132.31;5008802;28;20042;-74
2022/04/14 05:49:32;;;;;;;20.10;8.88;;;;;;;4.83;nan;101138.28;5008320;28;20065;-74
2022/04/14 05:51:58;;;;;;;35.75;10.18;;;;;;;4.96;nan;101146.41;5009169;28;20832;-73
2022/04/14 05:54:24;;;;;;;21.55;9.20;;;;;;;5.09;nan;101148.44;5028994;28;20099;-73
2022/04/14 05:56:49;;;;;;;19.83;9.27;;;;;;;5.18;nan;101149.25;5011198;28;20088;-74
2022/04/14 05:59:17;;;;;;;17.88;9.95;;;;;;;5.23;nan;101142.50;5008850;28;20088;-73
2022/04/14 06:01:43;;;;;;;15.15;9.13;;;;;;;5.26;nan;101134.31;5011728;28;20026;-73
2022/04/14 06:04:09;;;;;;;18.90;8.27;;;;;;;5.46;nan;101137.31;5010798;28;20030;-72
2022/04/14 06:06:34;;;;;;;17.52;7.70;;;;;;;5.48;nan;101126.69;5009380;28;20563;-74
2022/04/14 06:09:00;;;;;;;14.13;7.47;;;;;;;5.49;nan;101123.91;5015307;28;20041;-73
2022/04/14 06:11:25;;;;;;;12.90;7.40;;;;;;;5.58;nan;101124.69;5027003;28;20099;-73
2022/04/14 06:13:51;;;;;;;11.40;6.55;;;;;;;5.75;nan;101146.28;5012368;28;20125;-75
2022/04/14 06:16:16;;;;;;;12.95;7.28;;;;;;;5.76;nan;101140.84;5007920;28;20064;-74
2022/04/14 06:18:42;;;;;;;17.45;7.30;;;;;;;5.60;nan;101108.81;5009503;28;20037;-74
2022/04/14 06:21:07;;;;;;;15.25;7.25;;;;;;;5.86;nan;101150.28;5010352;28;20523;-73
2022/04/14 06:23:33;;;;;;;14.85;7.28;;;;;;;5.93;nan;101141.53;5033683;28;20033;-73
2022/04/14 06:25:58;;;;;;;11.93;6.95;;;;;;;6.11;nan;101138.66;5023975;28;20136;-73
2022/04/14 06:28:24;;;;;;;13.35;6.82;;;;;;;6.22;nan;101145.25;5021549;28;20041;-74
2022/04/14 06:30:51;;;;;;;15.10;7.53;;;;;;;6.33;nan;101147.44;5021915;28;20029;-74
2022/04/14 06:33:18;;;;;;;13.20;7.45;;;;;;;6.59;nan;101156.69;5020807;28;20026;-74
2022/04/14 06:35:44;;;;;;;14.15;7.15;;;;;;;6.65;nan;101148.09;5019277;28;20064;-73
2022/04/14 06:38:10;;;;;;;17.65;7.13;;;;;;;6.76;nan;101141.63;5017479;28;20056;-74
2022/04/14 06:40:35;;;;;;;15.30;7.20;;;;;;;6.92;nan;101148.44;5020363;28;20553;-73
2022/04/14 06:43:01;;;;;;;10.77;6.43;;;;;;;6.92;nan;101132.72;5008198;28;20034;-72
2022/04/14 06:45:27;;;;;;;11.50;6.57;;;;;;;7.11;nan;101152.31;5011063;28;20025;-73
2022/04/14 06:47:53;;;;;;;16.83;6.82;;;;;;;7.23;nan;101159.53;5009893;28;20116;-73
2022/04/14 06:50:19;;;;;;;14.63;6.20;;;;;;;7.30;nan;101154.34;5010964;28;20096;-73
2022/04/14 06:52:45;;;;;;;14.35;6.60;;;;;;;7.51;nan;101161.44;5006713;28;20034;-72
2022/04/14 06:55:10;;;;;;;14.60;7.43;;;;;;;7.59;nan;101158.72;5009491;28;20048;-72
2022/04/14 06:57:36;;;;;;;17.10;7.25;;;;;;;7.78;nan;101180.88;5010125;28;20053;-72
2022/04/14 07:00:04;;;;;;;13.77;6.38;;;;;;;7.82;nan;101176.84;5006688;28;20033;-72
2022/04/14 07:02:31;;;;;;;12.60;7.43;;;;;;;7.88;nan;101168.25;5004905;28;20030;-74
2022/04/14 07:04:58;;;;;;;13.30;6.55;;;;;;;7.97;nan;101174.16;5014558;28;20121;-74
2022/04/14 07:07:23;;;;;;;10.90;6.00;;;;;;;8.06;nan;101182.72;5010882;28;20037;-73
2022/04/14 07:09:48;;;;;;;12.75;6.47;;;;;;;8.07;nan;101174.69;5011119;28;20030;-73
2022/04/14 07:12:14;;;;;;;15.95;6.85;;;;;;;8.14;nan;101172.13;4993809;28;20484;-69
2022/04/14 07:14:40;;;;;;;11.82;6.43;;;;;;;8.26;nan;101178.47;5008024;28;20357;-73
2022/04/14 07:17:05;;;;;;;15.27;6.40;;;;;;;8.38;nan;101188.41;5014669;28;20033;-73
2022/04/14 07:19:31;;;;;;;13.45;6.47;;;;;;;8.36;nan;101172.88;5020645;28;20069;-73
2022/04/14 07:21:57;;;;;;;24.27;9.18;;;;;;;8.48;nan;101178.44;5009281;28;20084;-74
2022/04/14 07:24:22;;;;;;;20.80;9.88;;;;;;;8.62;nan;101187.19;4998937;28;20042;-73
2022/04/14 07:26:48;;;;;;;17.77;8.70;;;;;;;8.69;nan;101181.00;5009934;28;20092;-73
2022/04/14 07:29:13;;;;;;;16.40;7.97;;;;;;;8.85;nan;101190.38;5002366;28;20385;-73
2022/04/14 07:31:41;;;;;;;13.73;7.05;;;;;;;8.97;nan;101201.16;5024209;28;20094;-71
2022/04/14 07:34:08;;;;;;;11.50;7.03;;;;;;;;;;5008880;28;20088;-71
2022/04/14 07:36:33;;;;;;;14.20;6.53;;;;;;;;;;5009369;28;20061;-72
2022/04/14 07:38:59;;;;;;;13.35;6.60;;;;;;;;;;5010144;28;20038;-73
2022/04/14 07:41:26;;;;;;;15.23;6.67;;;;;;;;;;5010293;28;20116;-74
2022/04/14 07:43:51;;;;;;;12.82;6.60;;;;;;;;;;5010355;28;20278;-73
2022/04/14 07:46:16;;;;;;;13.82;6.97;;;;;;;;;;5025417;28;20046;-73
2022/04/14 07:48:42;;;;;;;19.90;6.47;;;;;;;;;;5025994;28;20041;-73
2022/04/14 07:51:07;;;;;;;11.73;6.10;;;;;;;;;;5014602;28;20302;-73
2022/04/14 07:53:33;;;;;;;12.52;6.57;;;;;;;;;;5028005;28;20067;-72
2022/04/14 07:55:58;;;;;;;11.25;6.28;;;;;;;;;;5012356;28;20745;-73
2022/04/14 07:58:24;;;;;;;14.07;6.30;;;;;;;;;;5013180;28;20120;-73
2022/04/14 08:00:52;;;;;;;12.32;5.95;;;;;;;;;;5014285;28;20504;-71
2022/04/14 08:03:18;;;;;;;13.30;5.97;;;;;;;;;;5013598;28;20040;-72
2022/04/14 08:05:44;;;;;;;14.30;5.88;;;;;;;;;;5013456;28;20038;-73
2022/04/14 08:08:12;;;;;;;15.27;6.43;;;;;;;;;;5014114;28;20107;-71
2022/04/14 08:10:38;;;;;;;11.27;6.38;;;;;;;;;;5013707;28;20160;-73
2022/04/14 08:13:03;;;;;;;11.25;7.20;;;;;;;;;;5012428;28;20113;-71
2022/04/14 08:15:29;;;;;;;15.77;8.40;;;;;;;;;;5013855;28;20117;-73
2022/04/14 08:17:55;;;;;;;13.88;7.03;;;;;;;;;;5017202;28;20065;-72
2022/04/14 08:20:21;;;;;;;12.30;5.97;;;;;;;;;;5008083;28;20476;-72
2022/04/14 08:22:48;;;;;;;13.30;5.65;;;;;;;;;;5009512;28;20068;-72
2022/04/14 08:25:14;;;;;;;9.55;4.68;;;;;;;;;;5006376;28;20080;-72
2022/04/14 08:27:39;;;;;;;7.78;4.70;;;;;;;;;;5017030;28;20048;-72
2022/04/14 08:30:05;;;;;;;9.52;5.78;;;;;;;;;;5011722;28;20034;-73
2022/04/14 08:32:31;;;;;;;10.85;5.40;;;;;;;;;;5009771;28;20041;-74
2022/04/14 08:34:56;;;;;;;26.80;5.88;;;;;;;;;;5012387;28;20428;-74
2022/04/14 08:37:21;;;;;;;12.27;5.65;;;;;;;;;;5011901;28;20042;-76
2022/04/14 08:39:46;;;;;;;9.93;5.10;;;;;;;;;;5013527;28;20124;-76
2022/04/14 08:42:15;;;;;;;9.83;5.43;;;;;;;;;;5012007;28;20259;-75
2022/04/14 08:44:44;;;;;;;11.98;5.45;;;;;;;;;;5028665;28;20721;-75
2022/04/14 08:47:10;;;;;;;10.68;5.10;;;;;;;;;;5013722;28;20037;-75
2022/04/14 08:49:35;;;;;;;8.90;5.13;;;;;;;;;;5013751;28;20388;-77
2022/04/14 08:52:01;;;;;;;9.88;5.13;;;;;;;;;;5029480;28;20073;-76
2022/04/14 08:54:27;;;;;;;8.63;4.82;;;;;;;;;;5019240;28;20401;-75
2022/04/14 08:56:58;;;;;;;11.63;4.70;;;;;;;;;;5048508;28;20065;-76
2022/04/14 08:59:24;;;;;;;8.93;4.38;;;;;;;;;;5033043;28;20144;-77
2022/04/14 09:01:50;;;;;;;8.50;4.32;;;;;;;;;;5035092;28;20112;-76
2022/04/14 09:04:15;;;;;;;9.45;4.57;;;;;;;;;;5012766;28;20069;-75
2022/04/14 09:06:40;;;;;;;6.50;3.70;;;;;;;;;;5013532;28;20455;-76
2022/04/14 09:09:06;;;;;;;7.03;4.00;;;;;;;;;;5013795;28;20440;-75
2022/04/14 09:11:31;;;;;;;12.37;4.77;;;;;;;;;;5013307;28;20411;-75
2022/04/14 09:13:58;;;;;;;10.48;4.40;;;;;;;;;;5013563;28;20274;-75
2022/04/14 09:16:24;;;;;;;7.57;4.32;;;;;;;;;;5009892;28;20045;-74
2022/04/14 09:18:50;;;;;;;11.10;4.00;;;;;;;;;;5012579;28;20038;-75
2022/04/14 09:21:15;;;;;;;7.03;3.28;;;;;;;;;;5013013;28;20783;-75
2022/04/14 09:23:48;;;;;;;7.10;3.45;;;;;;;;;;5015100;28;20026;-78
2022/04/14 09:26:14;;;;;;;5.80;3.40;;;;;;;;;;5014339;28;20044;-73
2022/04/14 09:29:03;;;;;;;6.00;2.75;;;;;;;;;;5012659;28;20038;-73
2022/04/14 09:31:28;;;;;;;4.78;2.25;;;;;;;;;;5008856;28;20042;-72
2022/04/14 09:33:54;;;;;;;4.95;2.40;;;;;;;;;;5011934;28;20056;-74
2022/04/14 09:36:20;;;;;;;5.05;2.42;;;;;;;;;;5007327;28;20077;-69
2022/04/14 09:38:55;;;;;;;4.68;2.38;;;;;;;;;;5008281;28;20454;-71
2022/04/14 09:41:32;;;;;;;5.93;3.10;;;;;;;;;;5025992;28;20467;-71
2022/04/14 09:43:59;;;;;;;5.85;3.33;;;;;;;;;;5008730;28;20030;-71
2022/04/14 09:46:25;;;;;;;4.13;2.63;;;;;;;;;;5010215;28;20100;-70
2022/04/14 09:49:02;;;;;;;3.83;3.10;;;;;;;;;;5010742;28;20072;-71
2022/04/14 09:51:28;;;;;;;5.80;2.55;;;;;;;;;;5012532;28;20116;-71
2022/04/14 09:54:06;;;;;;;7.20;2.63;;;;;;;;;;5008879;28;20133;-70
2022/04/14 09:56:42;;;;;;;5.10;2.90;;;;;;;;;;5015044;28;20615;-70
2022/04/14 09:59:08;;;;;;;6.30;2.80;;;;;;;;;;5003087;28;20034;-71
2022/04/14 10:01:34;;;;;;;4.55;2.85;;;;;;;;;;5010791;28;20068;-71
2022/04/14 10:04:00;;;;;;;4.22;2.58;;;;;;;;;;5013746;28;20484;-70
2022/04/14 10:06:25;;;;;;;4.00;2.58;;;;;;;;;;5005175;28;20040;-76
2022/04/14 10:08:51;;;;;;;5.22;2.75;;;;;;;;;;5002211;28;20380;-71
2022/04/14 10:11:23;;;;;;;6.43;2.60;;;;;;;;;;5001385;28;20132;-71
2022/04/14 10:13:49;;;;;;;6.35;2.35;;;;;;;16.59;nan;101073.19;5011902;28;20033;-71
2022/04/14 10:16:15;;;;;;;4.57;2.47;;;;;;;;;;5013982;28;20045;-71
2022/04/14 10:18:40;;;;;;;5.68;2.75;;;;;;;;;;5022102;28;20041;-71
2022/04/14 10:21:06;;;;;;;4.63;2.78;;;;;;;16.87;nan;101071.41;5021680;28;20041;-70
2022/04/14 10:23:32;;;;;;;5.35;2.97;;;;;;;;;;5019841;28;20044;-71
2022/04/14 10:25:57;;;;;;;3.67;2.67;;;;;;;;;;5019245;28;20060;-70
2022/04/14 10:28:26;;;;;;;4.25;2.60;;;;;;;;;;5013082;28;20041;-69
2022/04/14 10:30:55;;;;;;;4.90;2.85;;;;;;;;;;5016809;28;20109;-70
2022/04/14 10:33:21;;;;;;;4.93;3.05;;;;;;;;;;5030969;28;20038;-70
2022/04/14 10:35:46;;;;;;;4.78;2.78;;;;;;;17.30;nan;101123.72;5016116;28;20129;-70
2022/04/14 10:38:31;;;;;;;7.57;3.42;;;;;;;;;;5008184;28;20042;-77
2022/04/14 10:40:59;;;;;;;4.20;2.85;;;;;;;;;;5004579;28;20033;-77
2022/04/14 10:43:25;;;;;;;7.78;3.35;;;;;;;;;;5012277;28;20738;-76
2022/04/14 10:45:55;;;;;;;4.47;2.78;;;;;;;;;;5012130;28;20117;-76
2022/04/14 10:48:29;;;;;;;6.10;2.60;;;;;;;;;;5011937;28;20046;-75
2022/04/14 10:51:13;;;;;;;5.32;3.25;;;;;;;;;;5024211;28;20040;-77
2022/04/14 10:53:48;;;;;;;4.35;2.67;;;;;;;;;;5009933;28;20035;-75
2022/04/14 10:56:33;;;;;;;5.35;2.90;;;;;;;;;;5011507;28;20459;-76
2022/04/14 10:58:59;;;;;;;4.22;3.00;;;;;;;;;;5006903;28;20037;-71
2022/04/14 11:01:43;;;;;;;4.38;2.88;;;;;;;;;;5009500;28;20038;-71
2022/04/14 11:04:26;;;;;;;6.43;3.08;;;;;;;;;;5008721;28;20082;-70
2022/04/14 11:06:58;;;;;;;5.55;3.15;;;;;;;;;;5006960;28;20049;-70
2022/04/14 11:09:42;;;;;;;6.70;3.20;;;;;;;;;;5009980;28;20045;-70
2022/04/14 11:12:07;;;;;;;5.35;3.38;;;;;;;;;;5003298;28;20034;-70
2022/04/14 11:14:36;;;;;;;6.33;3.10;;;;;;;;;;5006317;28;20677;-71
2022/04/14 11:17:03;;;;;;;10.20;3.47;;;;;;;;;;5007098;28;20271;-71
2022/04/14 11:19:29;;;;;;;5.60;3.45;;;;;;;;;;5009930;28;20034;-70
2022/04/14 11:21:57;;;;;;;9.65;3.40;;;;;;;;;;5022549;28;20458;-70
2022/04/14 11:24:35;;;;;;;6.05;3.28;;;;;;;18.50;nan;101011.25;5005005;28;20038;-71
2022/04/14 11:27:24;;;;;;;4.60;2.88;;;;;;;;;;5016329;28;20412;-71
2022/04/14 11:29:57;;;;;;;5.40;3.08;;;;;;;;;;5016329;28;20145;-67
2022/04/14 11:32:39;;;;;;;6.90;3.63;;;;;;;;;;4981145;28;20041;-70
2022/04/14 11:35:16;;;;;;;5.50;3.25;;;;;;;18.85;nan;101024.97;5009750;28;20049;-69
2022/04/14 11:37:49;;;;;;;5.78;3.40;;;;;;;18.90;nan;101025.75;5005202;28;20042;-69
2022/04/14 11:40:17;;;;;;;5.68;3.17;;;;;;;19.00;nan;101021.50;5007656;28;20042;-70
2022/04/14 11:42:46;;;;;;;12.10;3.50;;;;;;;;;;5006839;28;20164;-76
2022/04/14 11:45:12;;;;;;;6.47;3.00;;;;;;;19.07;nan;101009.50;5010482;28;20301;-77
2022/04/14 11:47:38;;;;;;;6.90;3.20;;;;;;;19.19;nan;101027.13;4993698;28;20042;-70
2022/04/14 11:50:06;;;;;;;7.10;3.05;;;;;;;19.18;nan;101001.47;4998991;28;20042;-70
2022/04/14 11:52:33;;;;;;;6.18;3.25;;;;;;;19.00;nan;100992.16;4991208;28;20039;-70
2022/04/14 11:54:58;;;;;;;6.63;3.00;;;;;;;18.99;nan;100996.69;5006917;28;20034;-69
2022/04/14 11:57:28;;;;;;;3.90;2.72;;;;;;;;;;4994303;28;20077;-70
2022/04/14 11:59:56;;;;;;;4.43;2.67;;;;;;;19.17;nan;101015.91;5001596;28;20365;-71
2022/04/14 12:02:26;;;;;;;6.35;2.58;;;;;;;19.28;nan;101004.16;5005454;28;20034;-69
2022/04/14 12:04:54;;;;;;;4.18;2.70;;;;;;;19.30;nan;101031.41;5004260;28;20096;-69
2022/04/14 12:07:21;;;;;;;5.07;2.70;;;;;;;19.35;nan;100991.34;5003941;28;20042;-71
2022/04/14 12:09:46;;;;;;;6.10;3.08;;;;;;;19.49;nan;101003.06;5003259;28;20053;-74
2022/04/14 12:12:16;;;;;;;8.20;2.97;;;;;;;19.61;nan;100986.75;5002887;28;20492;-76
2022/04/14 12:14:51;;;;;;;6.30;2.50;;;;;;;19.70;nan;100945.06;5005670;28;20041;-70
2022/04/14 12:17:22;;;;;;;5.15;2.65;;;;;;;19.65;nan;101030.56;5001637;28;20034;-71
2022/04/14 12:19:55;;;;;;;6.47;2.75;;;;;;;19.78;nan;100981.13;5001127;28;20033;-72
2022/04/14 12:22:22;;;;;;;5.25;2.72;;;;;;;19.90;nan;100994.19;5005091;28;20030;-70
2022/04/14 12:24:55;;;;;;;6.72;3.17;;;;;;;19.99;nan;100984.50;5000702;28;20038;-69
2022/04/14 12:27:42;;;;;;;4.47;2.80;;;;;;;20.03;nan;100956.16;5004746;28;20041;-69